sensor_id;sensor_type;location;lat;lon;timestamp;pressure;altitude;pressure_sealevel;temperature;humidity
18821;BME280;9539;59.332;18.034;2022-09-23T00:02:09;101443.19;;;13.82;100.00
18821;BME280;9539;59.332;18.034;2022-09-23T00:04:36;101439.47;;;13.71;100.00
18821;BME280;9539;59.332;18.034;2022-09-23T00:07:03;101442.44;;;13.80;100.00
18821;BME280;9539;59.332;18.034;2022-09-23T00:09:29;101441.56;;;13.80;100.00
18821;BME280;9539;59.332;18.034;2022-09-23T00:11:58;101445.44;;;13.88;100.00
18821;BME280;9539;59.332;18.034;2022-09-23T00:14:25;101434.00;;;14.00;100.00
18821;BME280;9539;59.332;18.034;2022-09-23T00:16:52;101437.56;;;13.87;100.00
18821;BME280;9539;59.332;18.034;2022-09-23T00:19:18;101432.50;;;13.96;100.00
18821;BME280;9539;59.332;18.034;2022-09-23T00:21:46;101433.13;;;14.00;100.00
18821;BME280;9539;59.332;18.034;2022-09-23T00:24:13;101432.09;;;14.02;100.00
18821;BME280;9539;59.332;18.034;2022-09-23T00:26:40;101441.72;;;14.05;100.00
18821;BME280;9539;59.332;18.034;2022-09-23T00:29:08;101444.03;;;13.97;100.00
18821;BME280;9539;59.332;18.034;2022-09-23T00:31:35;101410.50;;;13.93;100.00
18821;BME280;9539;59.332;18.034;2022-09-23T00:34:02;101435.91;;;14.13;100.00
18821;BME280;9539;59.332;18.034;2022-09-23T00:36:29;101432.00;;;14.04;100.00
18821;BME280;9539;59.332;18.034;2022-09-23T00:38:56;101436.38;;;14.05;100.00
18821;BME280;9539;59.332;18.034;2022-09-23T00:41:24;101437.66;;;13.99;100.00
18821;BME280;9539;59.332;18.034;2022-09-23T00:43:53;101421.03;;;14.09;100.00
18821;BME280;9539;59.332;18.034;2022-09-23T00:46:25;101432.22;;;13.87;100.00
18821;BME280;9539;59.332;18.034;2022-09-23T00:48:56;101422.22;;;13.90;100.00
18821;BME280;9539;59.332;18.034;2022-09-23T00:51:28;101419.25;;;13.81;100.00
18821;BME280;9539;59.332;18.034;2022-09-23T00:53:57;101423.44;;;13.99;100.00
18821;BME280;9539;59.332;18.034;2022-09-23T00:56:24;101418.28;;;13.96;100.00
18821;BME280;9539;59.332;18.034;2022-09-23T00:58:52;101414.50;;;13.86;100.00
18821;BME280;9539;59.332;18.034;2022-09-23T01:01:19;101410.44;;;13.80;100.00
18821;BME280;9539;59.332;18.034;2022-09-23T01:03:48;101412.88;;;13.69;100.00
18821;BME280;9539;59.332;18.034;2022-09-23T01:06:15;101405.25;;;13.91;100.00
18821;BME280;9539;59.332;18.034;2022-09-23T01:08:44;101411.38;;;13.79;100.00
18821;BME280;9539;59.332;18.034;2022-09-23T01:11:29;101413.34;;;13.90;100.00
18821;BME280;9539;59.332;18.034;2022-09-23T01:14:08;101406.78;;;13.81;100.00
18821;BME280;9539;59.332;18.034;2022-09-23T01:16:42;101398.81;;;13.67;100.00
18821;BME280;9539;59.332;18.034;2022-09-23T01:19:28;101397.75;;;13.70;100.00
18821;BME280;9539;59.332;18.034;2022-09-23T01:22:04;101390.50;;;13.72;100.00
18821;BME280;9539;59.332;18.034;2022-09-23T01:25:06;101397.75;;;13.70;100.00
18821;BME280;9539;59.332;18.034;2022-09-23T01:27:50;101395.38;;;13.65;100.00
18821;BME280;9539;59.332;18.034;2022-09-23T01:30:43;101398.91;;;13.66;100.00
18821;BME280;9539;59.332;18.034;2022-09-23T01:33:19;101396.72;;;13.58;100.00
18821;BME280;9539;59.332;18.034;2022-09-23T01:35:57;101399.28;;;13.59;100.00
18821;BME280;9539;59.332;18.034;2022-09-23T01:38:34;101406.81;;;13.67;100.00
18821;BME280;9539;59.332;18.034;2022-09-23T01:41:12;101393.94;;;13.74;100.00
18821;BME280;9539;59.332;18.034;2022-09-23T01:43:47;101400.50;;;13.82;100.00
18821;BME280;9539;59.332;18.034;2022-09-23T01:46:20;101399.44;;;13.85;100.00
18821;BME280;9539;59.332;18.034;2022-09-23T01:48:56;101398.44;;;13.73;100.00
18821;BME280;9539;59.332;18.034;2022-09-23T01:51:29;101394.13;;;13.56;100.00
18821;BME280;9539;59.332;18.034;2022-09-23T01:54:03;101385.88;;;13.61;100.00
18821;BME280;9539;59.332;18.034;2022-09-23T01:56:35;101389.97;;;13.52;100.00
18821;BME280;9539;59.332;18.034;2022-09-23T01:59:08;101391.69;;;13.53;100.00
18821;BME280;9539;59.332;18.034;2022-09-23T02:01:41;101392.03;;;13.61;100.00
18821;BME280;9539;59.332;18.034;2022-09-23T02:04:12;101390.13;;;13.64;100.00
18821;BME280;9539;59.332;18.034;2022-09-23T02:06:44;101393.56;;;13.66;100.00
18821;BME280;9539;59.332;18.034;2022-09-23T02:09:14;101390.56;;;13.98;100.00
18821;BME280;9539;59.332;18.034;2022-09-23T02:11:45;101393.56;;;13.80;100.00
18821;BME280;9539;59.332;18.034;2022-09-23T02:14:18;101390.44;;;13.73;100.00
18821;BME280;9539;59.332;18.034;2022-09-23T02:16:50;101391.84;;;13.79;100.00
18821;BME280;9539;59.332;18.034;2022-09-23T02:19:22;101389.34;;;13.76;100.00
18821;BME280;9539;59.332;18.034;2022-09-23T02:21:57;101386.13;;;13.71;100.00
18821;BME280;9539;59.332;18.034;2022-09-23T02:24:28;101389.03;;;13.53;100.00
18821;BME280;9539;59.332;18.034;2022-09-23T02:27:00;101384.91;;;13.62;100.00
18821;BME280;9539;59.332;18.034;2022-09-23T02:29:38;101385.75;;;13.63;100.00
18821;BME280;9539;59.332;18.034;2022-09-23T02:32:14;101382.44;;;13.59;100.00
18821;BME280;9539;59.332;18.034;2022-09-23T02:34:45;101375.69;;;13.53;100.00
18821;BME280;9539;59.332;18.034;2022-09-23T02:37:24;101374.81;;;13.53;100.00
18821;BME280;9539;59.332;18.034;2022-09-23T02:40:00;101370.34;;;13.53;100.00
18821;BME280;9539;59.332;18.034;2022-09-23T02:42:33;101374.75;;;13.54;100.00
18821;BME280;9539;59.332;18.034;2022-09-23T02:45:02;101370.13;;;13.71;100.00
18821;BME280;9539;59.332;18.034;2022-09-23T02:47:33;101371.75;;;13.73;100.00
18821;BME280;9539;59.332;18.034;2022-09-23T02:50:04;101375.16;;;13.75;100.00
18821;BME280;9539;59.332;18.034;2022-09-23T02:52:31;101370.22;;;13.69;100.00
18821;BME280;9539;59.332;18.034;2022-09-23T02:54:58;101366.88;;;13.80;100.00
18821;BME280;9539;59.332;18.034;2022-09-23T02:57:26;101368.22;;;13.73;100.00
18821;BME280;9539;59.332;18.034;2022-09-23T02:59:53;101368.88;;;13.76;100.00
18821;BME280;9539;59.332;18.034;2022-09-23T03:02:32;101353.94;;;13.74;100.00
18821;BME280;9539;59.332;18.034;2022-09-23T03:05:07;101357.44;;;13.74;100.00
18821;BME280;9539;59.332;18.034;2022-09-23T03:07:46;101352.41;;;13.70;100.00
18821;BME280;9539;59.332;18.034;2022-09-23T03:10:21;101357.19;;;13.65;100.00
18821;BME280;9539;59.332;18.034;2022-09-23T03:12:59;101353.47;;;13.67;100.00
18821;BME280;9539;59.332;18.034;2022-09-23T03:15:35;101357.19;;;13.50;100.00
18821;BME280;9539;59.332;18.034;2022-09-23T03:18:11;101352.16;;;13.60;100.00
18821;BME280;9539;59.332;18.034;2022-09-23T03:20:42;101352.34;;;13.57;100.00
18821;BME280;9539;59.332;18.034;2022-09-23T03:23:12;101344.03;;;13.61;100.00
18821;BME280;9539;59.332;18.034;2022-09-23T03:25:44;101346.16;;;13.56;100.00
18821;BME280;9539;59.332;18.034;2022-09-23T03:28:15;101336.81;;;13.49;100.00
18821;BME280;9539;59.332;18.034;2022-09-23T03:30:44;101333.03;;;13.39;100.00
18821;BME280;9539;59.332;18.034;2022-09-23T03:33:14;101338.53;;;13.50;100.00
18821;BME280;9539;59.332;18.034;2022-09-23T03:35:48;101332.75;;;13.44;100.00
18821;BME280;9539;59.332;18.034;2022-09-23T03:38:38;101339.00;;;13.43;100.00
18821;BME280;9539;59.332;18.034;2022-09-23T03:41:08;101332.81;;;13.42;100.00
18821;BME280;9539;59.332;18.034;2022-09-23T03:43:37;101331.63;;;13.34;100.00
18821;BME280;9539;59.332;18.034;2022-09-23T03:46:04;101332.66;;;13.31;100.00
18821;BME280;9539;59.332;18.034;2022-09-23T03:48:34;101326.69;;;13.28;100.00
18821;BME280;9539;59.332;18.034;2022-09-23T03:51:09;101331.16;;;13.27;100.00
18821;BME280;9539;59.332;18.034;2022-09-23T03:53:44;101323.72;;;13.32;100.00
18821;BME280;9539;59.332;18.034;2022-09-23T03:56:11;101328.66;;;13.24;100.00
18821;BME280;9539;59.332;18.034;2022-09-23T03:58:38;101331.16;;;13.27;100.00
18821;BME280;9539;59.332;18.034;2022-09-23T04:01:04;101326.00;;;13.24;100.00
18821;BME280;9539;59.332;18.034;2022-09-23T04:03:31;101327.31;;;13.17;100.00
18821;BME280;9539;59.332;18.034;2022-09-23T04:05:59;101313.53;;;13.25;100.00
18821;BME280;9539;59.332;18.034;2022-09-23T04:08:26;101318.47;;;13.31;100.00
18821;BME280;9539;59.332;18.034;2022-09-23T04:10:58;101319.63;;;13.12;100.00
18821;BME280;9539;59.332;18.034;2022-09-23T04:13:25;101316.44;;;13.06;100.00
18821;BME280;9539;59.332;18.034;2022-09-23T04:15:53;101314.16;;;13.00;100.00
18821;BME280;9539;59.332;18.034;2022-09-23T04:18:20;101318.53;;;12.87;100.00
18821;BME280;9539;59.332;18.034;2022-09-23T04:20:47;101309.78;;;12.99;100.00
18821;BME280;9539;59.332;18.034;2022-09-23T04:23:15;101312.53;;;12.97;100.00
18821;BME280;9539;59.332;18.034;2022-09-23T04:25:45;101320.25;;;12.88;100.00
18821;BME280;9539;59.332;18.034;2022-09-23T04:28:12;101320.34;;;12.86;100.00
18821;BME280;9539;59.332;18.034;2022-09-23T04:30:39;101311.81;;;12.95;100.00
18821;BME280;9539;59.332;18.034;2022-09-23T04:33:08;101316.03;;;12.83;100.00
18821;BME280;9539;59.332;18.034;2022-09-23T04:35:35;101317.47;;;12.75;100.00
18821;BME280;9539;59.332;18.034;2022-09-23T04:38:03;101325.28;;;12.92;100.00
18821;BME280;9539;59.332;18.034;2022-09-23T04:40:31;101318.06;;;12.94;100.00
18821;BME280;9539;59.332;18.034;2022-09-23T04:42:58;101319.47;;;12.86;100.00
18821;BME280;9539;59.332;18.034;2022-09-23T04:45:25;101323.09;;;12.85;100.00
18821;BME280;9539;59.332;18.034;2022-09-23T04:47:52;101324.41;;;12.77;100.00
18821;BME280;9539;59.332;18.034;2022-09-23T04:50:19;101317.75;;;12.85;100.00
18821;BME280;9539;59.332;18.034;2022-09-23T04:52:45;101317.38;;;12.91;100.00
18821;BME280;9539;59.332;18.034;2022-09-23T04:55:12;101310.84;;;12.96;100.00
18821;BME280;9539;59.332;18.034;2022-09-23T04:57:40;101319.28;;;13.03;100.00
18821;BME280;9539;59.332;18.034;2022-09-23T05:00:09;101313.88;;;13.04;100.00
18821;BME280;9539;59.332;18.034;2022-09-23T05:02:41;101316.28;;;13.09;100.00
18821;BME280;9539;59.332;18.034;2022-09-23T05:05:08;101318.72;;;12.98;100.00
18821;BME280;9539;59.332;18.034;2022-09-23T05:07:35;101314.09;;;13.01;100.00
18821;BME280;9539;59.332;18.034;2022-09-23T05:10:02;101320.75;;;13.08;100.00
18821;BME280;9539;59.332;18.034;2022-09-23T05:12:29;101323.16;;;13.13;100.00
18821;BME280;9539;59.332;18.034;2022-09-23T05:14:57;101318.72;;;13.12;100.00
18821;BME280;9539;59.332;18.034;2022-09-23T05:17:24;101326.69;;;13.28;100.00
18821;BME280;9539;59.332;18.034;2022-09-23T05:19:51;101318.28;;;13.19;100.00
18821;BME280;9539;59.332;18.034;2022-09-23T05:22:17;101325.44;;;13.19;100.00
18821;BME280;9539;59.332;18.034;2022-09-23T05:24:45;101325.03;;;13.25;100.00
18821;BME280;9539;59.332;18.034;2022-09-23T05:27:11;101335.69;;;13.39;100.00
18821;BME280;9539;59.332;18.034;2022-09-23T05:29:38;101334.63;;;13.42;100.00
18821;BME280;9539;59.332;18.034;2022-09-23T05:32:06;101328.94;;;13.34;100.00
18821;BME280;9539;59.332;18.034;2022-09-23T05:34:34;101328.94;;;13.34;100.00
18821;BME280;9539;59.332;18.034;2022-09-23T05:37:00;101326.56;;;13.29;100.00
18821;BME280;9539;59.332;18.034;2022-09-23T05:39:27;101329.59;;;13.37;100.00
18821;BME280;9539;59.332;18.034;2022-09-23T05:41:54;101333.44;;;13.33;100.00
18821;BME280;9539;59.332;18.034;2022-09-23T05:44:21;101332.25;;;13.51;100.00
18821;BME280;9539;59.332;18.034;2022-09-23T05:46:48;101334.28;;;13.48;100.00
18821;BME280;9539;59.332;18.034;2022-09-23T05:49:16;101338.66;;;13.35;100.00
18821;BME280;9539;59.332;18.034;2022-09-23T05:51:43;101344.47;;;13.41;100.00
18821;BME280;9539;59.332;18.034;2022-09-23T05:54:10;101334.81;;;13.67;100.00
18821;BME280;9539;59.332;18.034;2022-09-23T05:56:37;101331.75;;;13.73;100.00
18821;BME280;9539;59.332;18.034;2022-09-23T05:59:04;101332.38;;;13.77;100.00
18821;BME280;9539;59.332;18.034;2022-09-23T06:01:33;101340.72;;;13.99;100.00
18821;BME280;9539;59.332;18.034;2022-09-23T06:04:04;101328.91;;;14.16;100.00
18821;BME280;9539;59.332;18.034;2022-09-23T06:06:33;101334.56;;;14.11;100.00
18821;BME280;9539;59.332;18.034;2022-09-23T06:09:02;101340.25;;;14.46;100.00
18821;BME280;9539;59.332;18.034;2022-09-23T06:11:30;101344.03;;;14.69;100.00
18821;BME280;9539;59.332;18.034;2022-09-23T06:13:58;101334.19;;;14.30;100.00
18821;BME280;9539;59.332;18.034;2022-09-23T06:16:27;101339.19;;;13.95;100.00
18821;BME280;9539;59.332;18.034;2022-09-23T06:18:54;101339.69;;;14.14;100.00
18821;BME280;9539;59.332;18.034;2022-09-23T06:21:21;101333.34;;;14.29;100.00
18821;BME280;9539;59.332;18.034;2022-09-23T06:23:49;101332.56;;;14.54;100.00
18821;BME280;9539;59.332;18.034;2022-09-23T06:26:16;101338.25;;;14.62;100.00
18821;BME280;9539;59.332;18.034;2022-09-23T06:28:43;101338.03;;;14.65;100.00
18821;BME280;9539;59.332;18.034;2022-09-23T06:31:12;101332.94;;;14.75;100.00
18821;BME280;9539;59.332;18.034;2022-09-23T06:33:40;101336.22;;;14.78;100.00
18821;BME280;9539;59.332;18.034;2022-09-23T06:36:07;101341.47;;;14.67;100.00
18821;BME280;9539;59.332;18.034;2022-09-23T06:38:38;101343.53;;;14.76;100.00
18821;BME280;9539;59.332;18.034;2022-09-23T06:41:06;101334.50;;;14.65;100.00
18821;BME280;9539;59.332;18.034;2022-09-23T06:43:33;101337.50;;;14.60;100.00
18821;BME280;9539;59.332;18.034;2022-09-23T06:46:01;101337.31;;;14.63;100.00
18821;BME280;9539;59.332;18.034;2022-09-23T06:48:30;101342.13;;;14.58;100.00
18821;BME280;9539;59.332;18.034;2022-09-23T06:51:00;101342.22;;;14.57;100.00
18821;BME280;9539;59.332;18.034;2022-09-23T06:53:29;101328.59;;;14.47;100.00
18821;BME280;9539;59.332;18.034;2022-09-23T06:55:57;101336.19;;;14.53;100.00
18821;BME280;9539;59.332;18.034;2022-09-23T06:58:26;101345.34;;;14.76;100.00
18821;BME280;9539;59.332;18.034;2022-09-23T07:00:53;101346.94;;;14.91;100.00
18821;BME280;9539;59.332;18.034;2022-09-23T07:03:19;101338.16;;;14.76;100.00
18821;BME280;9539;59.332;18.034;2022-09-23T07:05:46;101339.75;;;14.92;100.00
18821;BME280;9539;59.332;18.034;2022-09-23T07:08:13;101341.38;;;15.07;100.00
18821;BME280;9539;59.332;18.034;2022-09-23T07:10:40;101341.59;;;14.91;100.00
18821;BME280;9539;59.332;18.034;2022-09-23T07:13:07;101343.09;;;15.20;100.00
18821;BME280;9539;59.332;18.034;2022-09-23T07:15:35;101343.94;;;15.21;100.00
18821;BME280;9539;59.332;18.034;2022-09-23T07:18:02;101339.97;;;15.27;100.00
18821;BME280;9539;59.332;18.034;2022-09-23T07:20:29;101346.50;;;14.85;100.00
18821;BME280;9539;59.332;18.034;2022-09-23T07:22:56;101336.78;;;15.09;100.00
18821;BME280;9539;59.332;18.034;2022-09-23T07:25:23;101340.59;;;15.30;100.00
18821;BME280;9539;59.332;18.034;2022-09-23T07:27:50;101338.03;;;15.41;100.00
18821;BME280;9539;59.332;18.034;2022-09-23T07:30:17;101334.72;;;15.38;100.00
18821;BME280;9539;59.332;18.034;2022-09-23T07:32:45;101339.88;;;15.53;100.00
18821;BME280;9539;59.332;18.034;2022-09-23T07:35:13;101337.25;;;15.52;100.00
18821;BME280;9539;59.332;18.034;2022-09-23T07:37:40;101340.81;;;15.52;100.00
18821;BME280;9539;59.332;18.034;2022-09-23T07:40:07;101336.31;;;15.40;100.00
18821;BME280;9539;59.332;18.034;2022-09-23T07:42:34;101337.66;;;15.09;100.00
18821;BME280;9539;59.332;18.034;2022-09-23T07:45:01;101333.38;;;15.07;100.00
18821;BME280;9539;59.332;18.034;2022-09-23T07:47:27;101336.44;;;15.26;100.00
18821;BME280;9539;59.332;18.034;2022-09-23T07:49:57;101335.50;;;15.14;100.00
18821;BME280;9539;59.332;18.034;2022-09-23T07:52:24;101338.50;;;15.23;100.00
18821;BME280;9539;59.332;18.034;2022-09-23T07:54:50;101342.75;;;15.12;100.00
18821;BME280;9539;59.332;18.034;2022-09-23T07:57:17;101337.28;;;15.39;100.00
18821;BME280;9539;59.332;18.034;2022-09-23T07:59:44;101339.63;;;15.56;100.00
18821;BME280;9539;59.332;18.034;2022-09-23T08:02:11;101333.00;;;15.37;100.00
18821;BME280;9539;59.332;18.034;2022-09-23T08:04:41;101334.72;;;15.38;100.00
18821;BME280;9539;59.332;18.034;2022-09-23T08:07:11;101341.19;;;15.72;100.00
18821;BME280;9539;59.332;18.034;2022-09-23T08:09:40;101345.63;;;15.60;100.00
18821;BME280;9539;59.332;18.034;2022-09-23T08:12:08;101346.69;;;15.45;100.00
18821;BME280;9539;59.332;18.034;2022-09-23T08:14:35;101338.63;;;15.70;100.00
18821;BME280;9539;59.332;18.034;2022-09-23T08:17:02;101344.25;;;15.54;100.00
18821;BME280;9539;59.332;18.034;2022-09-23T08:19:29;101353.13;;;15.04;100.00
18821;BME280;9539;59.332;18.034;2022-09-23T08:21:56;101341.34;;;15.45;100.00
18821;BME280;9539;59.332;18.034;2022-09-23T08:24:24;101338.47;;;15.48;100.00
18821;BME280;9539;59.332;18.034;2022-09-23T08:26:52;101331.41;;;15.59;100.00
18821;BME280;9539;59.332;18.034;2022-09-23T08:29:21;101330.22;;;15.38;100.00
18821;BME280;9539;59.332;18.034;2022-09-23T08:31:48;101306.66;;;15.43;100.00
18821;BME280;9539;59.332;18.034;2022-09-23T08:34:16;101331.06;;;15.39;100.00
18821;BME280;9539;59.332;18.034;2022-09-23T08:36:43;101321.22;;;15.65;100.00
18821;BME280;9539;59.332;18.034;2022-09-23T08:39:12;101316.91;;;15.98;100.00
18821;BME280;9539;59.332;18.034;2022-09-23T08:41:44;101323.63;;;16.04;100.00
18821;BME280;9539;59.332;18.034;2022-09-23T08:44:16;101323.91;;;16.47;100.00
18821;BME280;9539;59.332;18.034;2022-09-23T08:46:49;101322.69;;;16.86;100.00
18821;BME280;9539;59.332;18.034;2022-09-23T08:49:24;101318.84;;;16.90;100.00
18821;BME280;9539;59.332;18.034;2022-09-23T08:51:53;101312.25;;;17.05;100.00
18821;BME280;9539;59.332;18.034;2022-09-23T08:54:22;101315.19;;;17.47;100.00
18821;BME280;9539;59.332;18.034;2022-09-23T08:56:55;101318.00;;;17.34;100.00
18821;BME280;9539;59.332;18.034;2022-09-23T08:59:27;101313.69;;;16.87;100.00
18821;BME280;9539;59.332;18.034;2022-09-23T09:02:05;101312.50;;;16.91;100.00
18821;BME280;9539;59.332;18.034;2022-09-23T09:04:39;101317.00;;;17.13;100.00
18821;BME280;9539;59.332;18.034;2022-09-23T09:07:12;101313.59;;;17.22;100.00
18821;BME280;9539;59.332;18.034;2022-09-23T09:09:42;101316.63;;;17.51;100.00
18821;BME280;9539;59.332;18.034;2022-09-23T09:12:15;101305.91;;;17.73;100.00
18821;BME280;9539;59.332;18.034;2022-09-23T09:14:50;101309.91;;;17.56;100.00
18821;BME280;9539;59.332;18.034;2022-09-23T09:17:28;101306.25;;;17.80;100.00
18821;BME280;9539;59.332;18.034;2022-09-23T09:20:02;101308.94;;;17.80;100.00
18821;BME280;9539;59.332;18.034;2022-09-23T09:22:41;101311.41;;;18.15;100.00
18821;BME280;9539;59.332;18.034;2022-09-23T09:25:36;101301.81;;;18.74;100.00
18821;BME280;9539;59.332;18.034;2022-09-23T09:28:13;101301.75;;;19.96;100.00
18821;BME280;9539;59.332;18.034;2022-09-23T09:30:41;101295.84;;;21.34;100.00
18821;BME280;9539;59.332;18.034;2022-09-23T09:33:12;101296.91;;;21.50;99.79
18821;BME280;9539;59.332;18.034;2022-09-23T09:35:55;101298.75;;;21.95;92.95
18821;BME280;9539;59.332;18.034;2022-09-23T09:38:25;101294.41;;;22.29;95.41
18821;BME280;9539;59.332;18.034;2022-09-23T09:40:53;101290.41;;;21.88;95.18
18821;BME280;9539;59.332;18.034;2022-09-23T09:43:27;101281.47;;;21.06;99.66
18821;BME280;9539;59.332;18.034;2022-09-23T09:46:01;101291.06;;;20.71;96.56
18821;BME280;9539;59.332;18.034;2022-09-23T09:48:37;101286.16;;;21.41;93.38
18821;BME280;9539;59.332;18.034;2022-09-23T09:51:16;101287.84;;;21.69;89.26
18821;BME280;9539;59.332;18.034;2022-09-23T09:53:44;101286.56;;;21.19;92.26
18821;BME280;9539;59.332;18.034;2022-09-23T09:56:13;101290.13;;;20.53;98.22
18821;BME280;9539;59.332;18.034;2022-09-23T09:58:45;101287.25;;;21.21;95.54
18821;BME280;9539;59.332;18.034;2022-09-23T10:01:21;101282.72;;;19.98;99.18
18821;BME280;9539;59.332;18.034;2022-09-23T10:03:49;101282.16;;;19.94;99.06
18821;BME280;9539;59.332;18.034;2022-09-23T10:06:20;101277.31;;;20.55;95.46
18821;BME280;9539;59.332;18.034;2022-09-23T10:09:09;101277.88;;;20.30;89.00
18821;BME280;9539;59.332;18.034;2022-09-23T10:11:37;101273.59;;;20.75;86.66
18821;BME280;9539;59.332;18.034;2022-09-23T10:14:11;101272.09;;;20.15;86.55
18821;BME280;9539;59.332;18.034;2022-09-23T10:16:39;101268.22;;;19.60;88.07
18821;BME280;9539;59.332;18.034;2022-09-23T10:19:16;101269.53;;;19.94;88.58
18821;BME280;9539;59.332;18.034;2022-09-23T10:21:51;101260.59;;;19.94;83.69
18821;BME280;9539;59.332;18.034;2022-09-23T10:24:23;101263.53;;;19.22;88.41
18821;BME280;9539;59.332;18.034;2022-09-23T10:26:54;101261.31;;;18.97;93.36
18821;BME280;9539;59.332;18.034;2022-09-23T10:29:28;101257.09;;;19.04;95.07
18821;BME280;9539;59.332;18.034;2022-09-23T10:32:18;101256.25;;;18.73;96.95
18821;BME280;9539;59.332;18.034;2022-09-23T10:34:48;101259.63;;;18.96;94.34
18821;BME280;9539;59.332;18.034;2022-09-23T10:37:23;101254.72;;;19.10;84.60
18821;BME280;9539;59.332;18.034;2022-09-23T10:39:52;101251.25;;;19.29;83.60
18821;BME280;9539;59.332;18.034;2022-09-23T10:43:04;101246.84;;;18.88;88.36
18821;BME280;9539;59.332;18.034;2022-09-23T10:45:59;101234.03;;;18.71;85.24
18821;BME280;9539;59.332;18.034;2022-09-23T10:48:52;101238.75;;;18.88;88.84
18821;BME280;9539;59.332;18.034;2022-09-23T10:51:27;101243.84;;;19.22;87.40
18821;BME280;9539;59.332;18.034;2022-09-23T10:54:01;101237.44;;;18.52;94.18
18821;BME280;9539;59.332;18.034;2022-09-23T10:56:35;101235.06;;;18.80;89.49
18821;BME280;9539;59.332;18.034;2022-09-23T10:59:17;101228.31;;;19.35;87.03
18821;BME280;9539;59.332;18.034;2022-09-23T11:01:58;101237.06;;;19.17;84.50
18821;BME280;9539;59.332;18.034;2022-09-23T11:04:58;101233.69;;;18.95;84.86
18821;BME280;9539;59.332;18.034;2022-09-23T11:07:35;101237.09;;;18.46;85.41
18821;BME280;9539;59.332;18.034;2022-09-23T11:13:26;101234.75;;;19.13;84.00
18821;BME280;9539;59.332;18.034;2022-09-23T11:16:03;101229.97;;;19.57;78.79
18821;BME280;9539;59.332;18.034;2022-09-23T11:18:56;101241.22;;;19.41;77.89
18821;BME280;9539;59.332;18.034;2022-09-23T11:21:37;101230.81;;;19.86;72.07
18821;BME280;9539;59.332;18.034;2022-09-23T11:24:32;101238.06;;;19.85;70.28
18821;BME280;9539;59.332;18.034;2022-09-23T11:27:11;101218.47;;;19.64;70.15
18821;BME280;9539;59.332;18.034;2022-09-23T11:30:05;101223.88;;;19.74;69.78
18821;BME280;9539;59.332;18.034;2022-09-23T11:35:33;101216.78;;;20.11;69.17
18821;BME280;9539;59.332;18.034;2022-09-23T11:38:05;101223.75;;;19.75;72.45
18821;BME280;9539;59.332;18.034;2022-09-23T11:40:34;101222.19;;;20.02;72.67
18821;BME280;9539;59.332;18.034;2022-09-23T11:43:05;101205.72;;;19.47;71.69
18821;BME280;9539;59.332;18.034;2022-09-23T11:45:43;101210.97;;;19.77;69.57
18821;BME280;9539;59.332;18.034;2022-09-23T11:48:14;101210.09;;;19.48;73.31
18821;BME280;9539;59.332;18.034;2022-09-23T11:50:49;101211.13;;;19.57;73.45
18821;BME280;9539;59.332;18.034;2022-09-23T11:53:22;101211.47;;;19.42;74.11
18821;BME280;9539;59.332;18.034;2022-09-23T11:56:01;101199.13;;;19.40;72.64
18821;BME280;9539;59.332;18.034;2022-09-23T11:58:36;101207.78;;;19.34;75.88
18821;BME280;9539;59.332;18.034;2022-09-23T12:01:08;101206.19;;;19.22;79.75
18821;BME280;9539;59.332;18.034;2022-09-23T12:03:43;101204.44;;;18.71;83.50
18821;BME280;9539;59.332;18.034;2022-09-23T12:06:18;101199.31;;;18.68;85.89
18821;BME280;9539;59.332;18.034;2022-09-23T12:08:45;101202.16;;;18.46;88.10
18821;BME280;9539;59.332;18.034;2022-09-23T12:11:25;101202.69;;;18.19;80.98
18821;BME280;9539;59.332;18.034;2022-09-23T12:14:03;101189.97;;;18.42;80.82
18821;BME280;9539;59.332;18.034;2022-09-23T12:17:12;101195.53;;;18.50;80.15
18821;BME280;9539;59.332;18.034;2022-09-23T12:20:05;101193.44;;;18.53;79.73
18821;BME280;9539;59.332;18.034;2022-09-23T12:22:47;101187.41;;;18.61;79.91
18821;BME280;9539;59.332;18.034;2022-09-23T12:25:33;101190.19;;;18.80;82.65
18821;BME280;9539;59.332;18.034;2022-09-23T12:28:03;101189.59;;;18.46;82.39
18821;BME280;9539;59.332;18.034;2022-09-23T12:30:33;101184.66;;;18.30;84.23
18821;BME280;9539;59.332;18.034;2022-09-23T12:33:09;101159.53;;;18.92;79.87
18821;BME280;9539;59.332;18.034;2022-09-23T12:35:42;101180.28;;;18.81;83.69
18821;BME280;9539;59.332;18.034;2022-09-23T12:38:14;101181.63;;;18.96;85.54
18821;BME280;9539;59.332;18.034;2022-09-23T12:40:44;101173.34;;;18.78;84.06
18821;BME280;9539;59.332;18.034;2022-09-23T12:43:15;101169.13;;;18.85;85.55
18821;BME280;9539;59.332;18.034;2022-09-23T12:45:42;101175.31;;;18.76;83.13
18821;BME280;9539;59.332;18.034;2022-09-23T12:48:44;101168.09;;;19.16;80.12
18821;BME280;9539;59.332;18.034;2022-09-23T12:51:18;101175.88;;;19.20;79.07
18821;BME280;9539;59.332;18.034;2022-09-23T12:57:00;101178.44;;;19.11;75.11
18821;BME280;9539;59.332;18.034;2022-09-23T12:59:29;101173.22;;;19.29;73.34
18821;BME280;9539;59.332;18.034;2022-09-23T13:01:57;101173.72;;;19.13;71.23
18821;BME280;9539;59.332;18.034;2022-09-23T13:04:43;101166.16;;;18.88;70.66
18821;BME280;9539;59.332;18.034;2022-09-23T13:07:39;101159.47;;;18.52;72.10
18821;BME280;9539;59.332;18.034;2022-09-23T13:10:15;101168.53;;;18.72;71.52
18821;BME280;9539;59.332;18.034;2022-09-23T13:12:44;101157.78;;;18.82;73.36
18821;BME280;9539;59.332;18.034;2022-09-23T13:15:16;101164.06;;;19.01;69.85
18821;BME280;9539;59.332;18.034;2022-09-23T13:17:48;101140.66;;;18.83;70.25